SXS8DG LTBJ-EDLW
Flight info
| Callsign | SXS8DG |
|---|---|
| Flight time | N/A |
| Altitude | 34000 |
| Route | VEXOL UY134 KERMA UL618 LMO DCT EVIVI L863 OKANA DCT BGD DCT NIVIS DCT BABIT DCT ARSIN DCT DITIS DCT KILNU DCT ABGUS Z94 POVEL L986 SAS L980 OSNAD M170 HMM N853 DOMEG DOMEG2A |
| Aircraft | B738/M-SDE2E3FGHIRWXY/LB1 |
Departure
| Time | N/A |
|---|---|
| Airport | Adnan Menderes International Airport (LTBJ) |
Arrival
| Time | 2026-05-05 19:16 |
|---|---|
| Airport | Dortmund Airport (EDLW) |
| Time | Latitude | Longitude | Altitude | Speed | Heading |
|---|---|---|---|---|---|
| 2026-05-05 17:05 | 42.48460 | 22.73909 | 33305 ft | 454 kts | 334° |
| 2026-05-05 17:05 | 42.51252 | 22.72020 | 33931 ft | 445 kts | 334° |
| 2026-05-05 17:05 | 42.54026 | 22.70139 | 33973 ft | 447 kts | 334° |
| 2026-05-05 17:06 | 42.59603 | 22.66355 | 33999 ft | 450 kts | 334° |
| 2026-05-05 17:06 | 42.65202 | 22.62549 | 34006 ft | 450 kts | 334° |
| 2026-05-05 17:07 | 42.70805 | 22.58732 | 34006 ft | 450 kts | 334° |
| 2026-05-05 17:07 | 42.76399 | 22.54913 | 34007 ft | 449 kts | 334° |
| 2026-05-05 17:08 | 42.81981 | 22.51096 | 34001 ft | 448 kts | 334° |
| 2026-05-05 17:08 | 42.87275 | 22.46665 | 34007 ft | 447 kts | 323° |
| 2026-05-05 17:09 | 42.92161 | 22.41430 | 33995 ft | 446 kts | 323° |
| 2026-05-05 17:09 | 42.97006 | 22.36179 | 33984 ft | 444 kts | 323° |
| 2026-05-05 17:10 | 43.01844 | 22.30979 | 33987 ft | 442 kts | 323° |
| 2026-05-05 17:10 | 43.06675 | 22.25811 | 33980 ft | 440 kts | 323° |
| 2026-05-05 17:11 | 43.11492 | 22.20657 | 33968 ft | 438 kts | 323° |
| 2026-05-05 17:11 | 43.16282 | 22.15523 | 33973 ft | 436 kts | 323° |
| 2026-05-05 17:12 | 43.21047 | 22.10404 | 33958 ft | 434 kts | 323° |
| 2026-05-05 17:12 | 43.25788 | 22.05300 | 33953 ft | 433 kts | 323° |
| 2026-05-05 17:13 | 43.30527 | 22.00185 | 33960 ft | 434 kts | 323° |
| 2026-05-05 17:13 | 43.35278 | 21.95050 | 33969 ft | 435 kts | 323° |
| 2026-05-05 17:14 | 43.39998 | 21.89936 | 33963 ft | 435 kts | 323° |
| 2026-05-05 17:14 | 43.44751 | 21.84775 | 33968 ft | 436 kts | 323° |
| 2026-05-05 17:15 | 43.49513 | 21.79596 | 33963 ft | 436 kts | 323° |
| 2026-05-05 17:15 | 43.54271 | 21.74409 | 33962 ft | 436 kts | 323° |
| 2026-05-05 17:16 | 43.59026 | 21.69214 | 33957 ft | 436 kts | 323° |
| 2026-05-05 17:16 | 43.63773 | 21.64017 | 33953 ft | 435 kts | 323° |
| 2026-05-05 17:17 | 43.68508 | 21.58823 | 33949 ft | 434 kts | 323° |
| 2026-05-05 17:17 | 43.73234 | 21.53629 | 33947 ft | 433 kts | 323° |
| 2026-05-05 17:18 | 43.77947 | 21.48438 | 33944 ft | 433 kts | 323° |
| 2026-05-05 17:18 | 43.82650 | 21.43247 | 33946 ft | 432 kts | 323° |
| 2026-05-05 17:19 | 43.87343 | 21.38056 | 33941 ft | 431 kts | 322° |
| 2026-05-05 17:19 | 43.92026 | 21.32865 | 33942 ft | 431 kts | 322° |
| 2026-05-05 17:20 | 43.96705 | 21.27669 | 33939 ft | 431 kts | 322° |
| 2026-05-05 17:20 | 44.01385 | 21.22461 | 33940 ft | 431 kts | 322° |
| 2026-05-05 17:21 | 44.06064 | 21.17242 | 33937 ft | 431 kts | 322° |
| 2026-05-05 17:22 | 44.13089 | 21.09387 | 33937 ft | 432 kts | 322° |
| 2026-05-05 17:22 | 44.17775 | 21.04133 | 33937 ft | 433 kts | 322° |
| 2026-05-05 17:23 | 44.22465 | 20.98864 | 33930 ft | 433 kts | 322° |
| 2026-05-05 17:23 | 44.27157 | 20.93581 | 33937 ft | 433 kts | 322° |
| 2026-05-05 17:24 | 44.31817 | 20.88324 | 33931 ft | 434 kts | 322° |
| 2026-05-05 17:24 | 44.36505 | 20.83022 | 33937 ft | 433 kts | 322° |
| 2026-05-05 17:25 | 44.41184 | 20.77721 | 33933 ft | 433 kts | 321° |
| 2026-05-05 17:25 | 44.45853 | 20.72419 | 33932 ft | 432 kts | 321° |
| 2026-05-05 17:26 | 44.50520 | 20.67108 | 33938 ft | 432 kts | 321° |
| 2026-05-05 17:26 | 44.55179 | 20.61796 | 33931 ft | 431 kts | 321° |
| 2026-05-05 17:27 | 44.59828 | 20.56483 | 33929 ft | 431 kts | 321° |
| 2026-05-05 17:27 | 44.64477 | 20.51159 | 33941 ft | 431 kts | 321° |
| 2026-05-05 17:28 | 44.68368 | 20.46694 | 33934 ft | 431 kts | 321° |
| 2026-05-05 17:28 | 44.73011 | 20.41356 | 33936 ft | 431 kts | 321° |
| 2026-05-05 17:29 | 44.77649 | 20.36011 | 33936 ft | 431 kts | 321° |
| 2026-05-05 17:29 | 44.82263 | 20.30682 | 33944 ft | 432 kts | 321° |
| 2026-05-05 17:30 | 44.86856 | 20.25225 | 33940 ft | 432 kts | 320° |
| 2026-05-05 17:30 | 44.91429 | 20.19713 | 33941 ft | 433 kts | 320° |
| 2026-05-05 17:31 | 44.96039 | 20.14156 | 33936 ft | 433 kts | 320° |
| 2026-05-05 17:31 | 45.00595 | 20.08666 | 33939 ft | 434 kts | 320° |
| 2026-05-05 17:32 | 45.05188 | 20.03122 | 33935 ft | 434 kts | 320° |
| 2026-05-05 17:32 | 45.09786 | 19.97562 | 33939 ft | 435 kts | 320° |
| 2026-05-05 17:33 | 45.14387 | 19.91983 | 33930 ft | 436 kts | 320° |
| 2026-05-05 17:33 | 45.18989 | 19.86391 | 33929 ft | 436 kts | 319° |
| 2026-05-05 17:34 | 45.23594 | 19.80786 | 33931 ft | 437 kts | 317° |
| 2026-05-05 17:34 | 45.28186 | 19.75146 | 33928 ft | 436 kts | 317° |
| 2026-05-05 17:35 | 45.32744 | 19.69460 | 33923 ft | 436 kts | 317° |
| 2026-05-05 17:35 | 45.37294 | 19.63766 | 33923 ft | 436 kts | 316° |
| 2026-05-05 17:36 | 45.41839 | 19.58073 | 33925 ft | 435 kts | 316° |
| 2026-05-05 17:36 | 45.46383 | 19.52374 | 33925 ft | 435 kts | 316° |
| 2026-05-05 17:37 | 45.50924 | 19.46666 | 33928 ft | 435 kts | 316° |
| 2026-05-05 17:37 | 45.55466 | 19.40945 | 33928 ft | 436 kts | 316° |
| 2026-05-05 17:38 | 45.60009 | 19.35209 | 33932 ft | 437 kts | 316° |
| 2026-05-05 17:38 | 45.64561 | 19.29448 | 33930 ft | 437 kts | 316° |
| 2026-05-05 17:39 | 45.69119 | 19.23667 | 33930 ft | 439 kts | 316° |
| 2026-05-05 17:39 | 45.73688 | 19.17859 | 33929 ft | 440 kts | 316° |
| 2026-05-05 17:40 | 45.78271 | 19.12020 | 33927 ft | 441 kts | 316° |
| 2026-05-05 17:40 | 45.82862 | 19.06156 | 33931 ft | 443 kts | 316° |
| 2026-05-05 17:41 | 45.87431 | 19.00306 | 33932 ft | 444 kts | 315° |
| 2026-05-05 17:41 | 45.92043 | 18.94390 | 33927 ft | 445 kts | 315° |
| 2026-05-05 17:42 | 45.96665 | 18.88470 | 33927 ft | 446 kts | 316° |
| 2026-05-05 17:42 | 46.01302 | 18.82548 | 33930 ft | 446 kts | 316° |
| 2026-05-05 17:43 | 46.05939 | 18.76614 | 33931 ft | 446 kts | 315° |
| 2026-05-05 17:43 | 46.10572 | 18.70667 | 33933 ft | 446 kts | 315° |
| 2026-05-05 17:44 | 46.15199 | 18.64709 | 33946 ft | 446 kts | 315° |
| 2026-05-05 17:44 | 46.19818 | 18.58747 | 33940 ft | 446 kts | 315° |
| 2026-05-05 17:45 | 46.24436 | 18.52774 | 33941 ft | 445 kts | 315° |
| 2026-05-05 17:45 | 46.29043 | 18.46801 | 33941 ft | 445 kts | 315° |
| 2026-05-05 17:46 | 46.33638 | 18.40828 | 33937 ft | 444 kts | 315° |
| 2026-05-05 17:46 | 46.38228 | 18.34849 | 33933 ft | 444 kts | 315° |
| 2026-05-05 17:47 | 46.42809 | 18.28866 | 33931 ft | 443 kts | 315° |
| 2026-05-05 17:47 | 46.47386 | 18.22875 | 33933 ft | 443 kts | 315° |
| 2026-05-05 17:48 | 46.51954 | 18.16881 | 33933 ft | 443 kts | 315° |
| 2026-05-05 17:48 | 46.56527 | 18.10867 | 33933 ft | 443 kts | 315° |
| 2026-05-05 17:49 | 46.60048 | 18.06227 | 33931 ft | 444 kts | 315° |
| 2026-05-05 17:49 | 46.64066 | 18.00921 | 33927 ft | 444 kts | 315° |
| 2026-05-05 17:50 | 46.68606 | 17.94912 | 33926 ft | 444 kts | 315° |
| 2026-05-05 17:50 | 46.73177 | 17.88848 | 33923 ft | 445 kts | 315° |
| 2026-05-05 17:51 | 46.77754 | 17.82761 | 33918 ft | 445 kts | 315° |
| 2026-05-05 17:51 | 46.82327 | 17.76665 | 33922 ft | 445 kts | 315° |
| 2026-05-05 17:52 | 46.86900 | 17.70555 | 33918 ft | 446 kts | 315° |
| 2026-05-05 17:52 | 46.91473 | 17.64431 | 33915 ft | 446 kts | 315° |
| 2026-05-05 17:53 | 46.96040 | 17.58298 | 33909 ft | 446 kts | 315° |
| 2026-05-05 17:53 | 47.00606 | 17.52153 | 33904 ft | 446 kts | 315° |
| 2026-05-05 17:54 | 47.05167 | 17.45998 | 33890 ft | 446 kts | 315° |
| 2026-05-05 17:54 | 47.09726 | 17.39832 | 33891 ft | 445 kts | 315° |
| 2026-05-05 17:55 | 47.14275 | 17.33665 | 33890 ft | 445 kts | 314° |
| 2026-05-05 17:55 | 47.18819 | 17.27488 | 33883 ft | 445 kts | 314° |
| 2026-05-05 17:56 | 47.23358 | 17.21304 | 33880 ft | 445 kts | 314° |
| 2026-05-05 17:56 | 47.27894 | 17.15109 | 33875 ft | 444 kts | 314° |
| 2026-05-05 17:57 | 47.32421 | 17.08910 | 33870 ft | 444 kts | 314° |
| 2026-05-05 17:57 | 47.36930 | 17.02721 | 33855 ft | 444 kts | 314° |
| 2026-05-05 17:58 | 47.41448 | 16.96503 | 33850 ft | 444 kts | 314° |
| 2026-05-05 17:58 | 47.45964 | 16.90274 | 33843 ft | 444 kts | 314° |
| 2026-05-05 17:59 | 47.50481 | 16.84028 | 33835 ft | 445 kts | 314° |
| 2026-05-05 17:59 | 47.55003 | 16.77760 | 33824 ft | 446 kts | 314° |
| 2026-05-05 18:00 | 47.59657 | 16.71666 | 33817 ft | 448 kts | 318° |
| 2026-05-05 18:00 | 47.64540 | 16.65901 | 33814 ft | 449 kts | 319° |
| 2026-05-05 18:01 | 47.69452 | 16.60144 | 33805 ft | 451 kts | 319° |
| 2026-05-05 18:01 | 47.74350 | 16.54321 | 33797 ft | 452 kts | 317° |
| 2026-05-05 18:02 | 47.79247 | 16.48447 | 33788 ft | 453 kts | 319° |
| 2026-05-05 18:02 | 47.84142 | 16.42554 | 33777 ft | 453 kts | 318° |
| 2026-05-05 18:03 | 47.89041 | 16.36643 | 33769 ft | 453 kts | 318° |
| 2026-05-05 18:03 | 47.93930 | 16.30724 | 33759 ft | 453 kts | 318° |
| 2026-05-05 18:04 | 47.98815 | 16.24800 | 33746 ft | 452 kts | 318° |
| 2026-05-05 18:04 | 48.03661 | 16.18907 | 33740 ft | 452 kts | 318° |
| 2026-05-05 18:05 | 48.08531 | 16.12969 | 33731 ft | 452 kts | 318° |
| 2026-05-05 18:05 | 48.13399 | 16.07017 | 33730 ft | 452 kts | 318° |
| 2026-05-05 18:06 | 48.18259 | 16.01062 | 33728 ft | 452 kts | 318° |
| 2026-05-05 18:06 | 48.23127 | 15.95082 | 33717 ft | 452 kts | 318° |
| 2026-05-05 18:07 | 48.27990 | 15.89092 | 33719 ft | 453 kts | 318° |
| 2026-05-05 18:07 | 48.32860 | 15.83078 | 33710 ft | 453 kts | 318° |
| 2026-05-05 18:08 | 48.37732 | 15.77046 | 33713 ft | 454 kts | 318° |
| 2026-05-05 18:08 | 48.42606 | 15.70998 | 33706 ft | 454 kts | 318° |
| 2026-05-05 18:09 | 48.47483 | 15.64929 | 33713 ft | 455 kts | 318° |
| 2026-05-05 18:09 | 48.52359 | 15.58845 | 33701 ft | 455 kts | 318° |
| 2026-05-05 18:10 | 48.57234 | 15.52748 | 33696 ft | 455 kts | 318° |
| 2026-05-05 18:10 | 48.62106 | 15.46639 | 33701 ft | 455 kts | 318° |
| 2026-05-05 18:11 | 48.66979 | 15.40511 | 33704 ft | 455 kts | 318° |
| 2026-05-05 18:11 | 48.71843 | 15.34380 | 33694 ft | 455 kts | 318° |
| 2026-05-05 18:12 | 48.76701 | 15.28239 | 33690 ft | 455 kts | 318° |
| 2026-05-05 18:12 | 48.81549 | 15.22095 | 33701 ft | 454 kts | 318° |
| 2026-05-05 18:13 | 48.86395 | 15.15939 | 33705 ft | 454 kts | 318° |
| 2026-05-05 18:13 | 48.91195 | 15.09802 | 33704 ft | 454 kts | 317° |
| 2026-05-05 18:14 | 48.95945 | 15.03479 | 33708 ft | 454 kts | 316° |
| 2026-05-05 18:14 | 49.00666 | 14.97102 | 33714 ft | 454 kts | 316° |
| 2026-05-05 18:15 | 49.04626 | 14.91758 | 33712 ft | 454 kts | 316° |
| 2026-05-05 18:15 | 49.09359 | 14.85374 | 33717 ft | 454 kts | 316° |
| 2026-05-05 18:16 | 49.14093 | 14.78982 | 33722 ft | 455 kts | 316° |
| 2026-05-05 18:16 | 49.18829 | 14.72570 | 33725 ft | 455 kts | 316° |
| 2026-05-05 18:17 | 49.23565 | 14.66143 | 33724 ft | 455 kts | 316° |
| 2026-05-05 18:17 | 49.28303 | 14.59694 | 33723 ft | 456 kts | 316° |
| 2026-05-05 18:18 | 49.33003 | 14.53280 | 33734 ft | 456 kts | 316° |
| 2026-05-05 18:18 | 49.37737 | 14.46801 | 33721 ft | 456 kts | 316° |
| 2026-05-05 18:19 | 49.42468 | 14.40310 | 33727 ft | 456 kts | 315° |
| 2026-05-05 18:19 | 49.47191 | 14.33813 | 33733 ft | 456 kts | 315° |
| 2026-05-05 18:20 | 49.51908 | 14.27306 | 33732 ft | 456 kts | 315° |
| 2026-05-05 18:20 | 49.56622 | 14.20785 | 33734 ft | 455 kts | 315° |
| 2026-05-05 18:21 | 49.61331 | 14.14253 | 33735 ft | 455 kts | 315° |
| 2026-05-05 18:21 | 49.66036 | 14.07710 | 33728 ft | 455 kts | 315° |
| 2026-05-05 18:22 | 49.70737 | 14.01153 | 33729 ft | 455 kts | 315° |
| 2026-05-05 18:22 | 49.75436 | 13.94583 | 33732 ft | 455 kts | 315° |
| 2026-05-05 18:23 | 49.80128 | 13.88003 | 33733 ft | 455 kts | 315° |
| 2026-05-05 18:23 | 49.84820 | 13.81407 | 33731 ft | 456 kts | 315° |
| 2026-05-05 18:24 | 49.89508 | 13.74798 | 33739 ft | 456 kts | 314° |
| 2026-05-05 18:24 | 49.94167 | 13.68211 | 33732 ft | 456 kts | 314° |
| 2026-05-05 18:25 | 49.98888 | 13.61516 | 33732 ft | 457 kts | 314° |
| 2026-05-05 18:25 | 50.03546 | 13.54895 | 33739 ft | 457 kts | 314° |
| 2026-05-05 18:26 | 50.08237 | 13.48207 | 33739 ft | 458 kts | 314° |
| 2026-05-05 18:26 | 50.12930 | 13.41500 | 33745 ft | 458 kts | 314° |
| 2026-05-05 18:27 | 50.17623 | 13.34771 | 33753 ft | 459 kts | 314° |
| 2026-05-05 18:27 | 50.22317 | 13.28023 | 33760 ft | 459 kts | 314° |
| 2026-05-05 18:28 | 50.29354 | 13.17873 | 33769 ft | 459 kts | 314° |
| 2026-05-05 18:28 | 50.34044 | 13.11083 | 33755 ft | 460 kts | 314° |
| 2026-05-05 18:29 | 50.38729 | 13.04280 | 33773 ft | 459 kts | 314° |
| 2026-05-05 18:29 | 50.43406 | 12.97472 | 33761 ft | 459 kts | 314° |
| 2026-05-05 18:30 | 50.48089 | 12.90661 | 33776 ft | 459 kts | 315° |
| 2026-05-05 18:30 | 50.52987 | 12.84181 | 33754 ft | 461 kts | 317° |
| 2026-05-05 18:31 | 50.57955 | 12.77892 | 33768 ft | 462 kts | 317° |
| 2026-05-05 18:31 | 50.62951 | 12.71515 | 33762 ft | 463 kts | 317° |
| 2026-05-05 18:32 | 50.67969 | 12.65031 | 33766 ft | 464 kts | 316° |
| 2026-05-05 18:32 | 50.72916 | 12.58594 | 33776 ft | 464 kts | 316° |
| 2026-05-05 18:33 | 50.77897 | 12.52093 | 33783 ft | 465 kts | 316° |
| 2026-05-05 18:33 | 50.82873 | 12.45581 | 33796 ft | 464 kts | 316° |
| 2026-05-05 18:34 | 50.87848 | 12.39052 | 33799 ft | 465 kts | 316° |
| 2026-05-05 18:34 | 50.92822 | 12.32506 | 33797 ft | 465 kts | 316° |
| 2026-05-05 18:35 | 50.97787 | 12.25953 | 33800 ft | 465 kts | 316° |
| 2026-05-05 18:35 | 51.02764 | 12.19365 | 33793 ft | 465 kts | 316° |
| 2026-05-05 18:36 | 51.07734 | 12.12768 | 33789 ft | 466 kts | 316° |
| 2026-05-05 18:36 | 51.12707 | 12.06148 | 33787 ft | 466 kts | 316° |
| 2026-05-05 18:37 | 51.17680 | 11.99509 | 33794 ft | 467 kts | 315° |
| 2026-05-05 18:37 | 51.22658 | 11.92843 | 33798 ft | 468 kts | 315° |
| 2026-05-05 18:38 | 51.27639 | 11.86153 | 33799 ft | 468 kts | 315° |
| 2026-05-05 18:38 | 51.32626 | 11.79437 | 33805 ft | 469 kts | 315° |
| 2026-05-05 18:39 | 51.37610 | 11.72703 | 33806 ft | 469 kts | 315° |
| 2026-05-05 18:39 | 51.42595 | 11.65949 | 33819 ft | 469 kts | 315° |
| 2026-05-05 18:40 | 51.47579 | 11.59177 | 33812 ft | 470 kts | 315° |
| 2026-05-05 18:40 | 51.52555 | 11.52395 | 33819 ft | 469 kts | 315° |
| 2026-05-05 18:41 | 51.57526 | 11.45600 | 33824 ft | 469 kts | 315° |
| 2026-05-05 18:41 | 51.62488 | 11.38797 | 33829 ft | 468 kts | 315° |
| 2026-05-05 18:42 | 51.67439 | 11.31988 | 33829 ft | 468 kts | 315° |
| 2026-05-05 18:42 | 51.72382 | 11.25169 | 33832 ft | 467 kts | 314° |
| 2026-05-05 18:43 | 51.77310 | 11.18351 | 33833 ft | 466 kts | 314° |
| 2026-05-05 18:43 | 51.82194 | 11.11574 | 33833 ft | 466 kts | 314° |
| 2026-05-05 18:44 | 51.87188 | 11.04890 | 33829 ft | 469 kts | 321° |
| 2026-05-05 18:44 | 51.92933 | 10.99755 | 33840 ft | 473 kts | 329° |
| 2026-05-05 18:45 | 51.98790 | 10.94894 | 33842 ft | 473 kts | 328° |
| 2026-05-05 18:45 | 52.04598 | 10.89916 | 33851 ft | 472 kts | 327° |
| 2026-05-05 18:46 | 52.10232 | 10.84562 | 33832 ft | 463 kts | 313° |
| 2026-05-05 18:46 | 52.12329 | 10.80700 | 33866 ft | 451 kts | 298° |
| 2026-05-05 18:46 | 52.13742 | 10.76225 | 33848 ft | 441 kts | 283° |
| 2026-05-05 18:47 | 52.15085 | 10.66614 | 33857 ft | 435 kts | 276° |
| 2026-05-05 18:47 | 52.16280 | 10.56945 | 33855 ft | 436 kts | 277° |
| 2026-05-05 18:48 | 52.17525 | 10.47231 | 33604 ft | 442 kts | 277° |
| 2026-05-05 18:48 | 52.18165 | 10.42321 | 33340 ft | 443 kts | 277° |
| 2026-05-05 18:48 | 52.18806 | 10.37423 | 33066 ft | 441 kts | 277° |
| 2026-05-05 18:49 | 52.19446 | 10.32526 | 32799 ft | 442 kts | 277° |
| 2026-05-05 18:49 | 52.20084 | 10.27625 | 32538 ft | 443 kts | 277° |
| 2026-05-05 18:49 | 52.20723 | 10.22698 | 32279 ft | 444 kts | 277° |
| 2026-05-05 18:49 | 52.21358 | 10.17770 | 32010 ft | 445 kts | 277° |
| 2026-05-05 18:50 | 52.21994 | 10.12827 | 31751 ft | 446 kts | 277° |
| 2026-05-05 18:50 | 52.22627 | 10.07879 | 31502 ft | 446 kts | 277° |
| 2026-05-05 18:50 | 52.23259 | 10.02929 | 31248 ft | 447 kts | 277° |
| 2026-05-05 18:50 | 52.23891 | 9.97967 | 31005 ft | 447 kts | 277° |
| 2026-05-05 18:51 | 52.24521 | 9.92995 | 30758 ft | 448 kts | 277° |
| 2026-05-05 18:51 | 52.25023 | 9.87996 | 30507 ft | 445 kts | 271° |
| 2026-05-05 18:51 | 52.25071 | 9.82974 | 30258 ft | 441 kts | 264° |
| 2026-05-05 18:51 | 52.24920 | 9.77973 | 30029 ft | 442 kts | 263° |
| 2026-05-05 18:52 | 52.24752 | 9.72962 | 29775 ft | 443 kts | 263° |
| 2026-05-05 18:52 | 52.24588 | 9.67943 | 29484 ft | 444 kts | 264° |
| 2026-05-05 18:52 | 52.24436 | 9.62973 | 29210 ft | 445 kts | 264° |
| 2026-05-05 18:52 | 52.24289 | 9.57920 | 28936 ft | 447 kts | 264° |
| 2026-05-05 18:53 | 52.24147 | 9.52843 | 28664 ft | 448 kts | 264° |
| 2026-05-05 18:53 | 52.24004 | 9.47755 | 28394 ft | 450 kts | 264° |
| 2026-05-05 18:53 | 52.23860 | 9.42645 | 28120 ft | 451 kts | 264° |
| 2026-05-05 18:53 | 52.23713 | 9.37533 | 27860 ft | 452 kts | 264° |
| 2026-05-05 18:54 | 52.23562 | 9.32405 | 27597 ft | 452 kts | 264° |
| 2026-05-05 18:54 | 52.23409 | 9.27279 | 27334 ft | 452 kts | 264° |
| 2026-05-05 18:54 | 52.23249 | 9.22166 | 27075 ft | 451 kts | 264° |
| 2026-05-05 18:54 | 52.23082 | 9.17066 | 26819 ft | 449 kts | 264° |
| 2026-05-05 18:55 | 52.22915 | 9.11996 | 26565 ft | 448 kts | 264° |
| 2026-05-05 18:55 | 52.22746 | 9.06936 | 26304 ft | 445 kts | 264° |
| 2026-05-05 18:55 | 52.22577 | 9.01900 | 26058 ft | 443 kts | 264° |
| 2026-05-05 18:55 | 52.22411 | 8.96898 | 25806 ft | 442 kts | 264° |
| 2026-05-05 18:56 | 52.22246 | 8.91898 | 25556 ft | 440 kts | 264° |
| 2026-05-05 18:56 | 52.22081 | 8.86927 | 25310 ft | 439 kts | 264° |
| 2026-05-05 18:56 | 52.21914 | 8.81968 | 25065 ft | 437 kts | 264° |
| 2026-05-05 18:56 | 52.21746 | 8.77026 | 24822 ft | 436 kts | 264° |
| 2026-05-05 18:57 | 52.21577 | 8.72112 | 24273 ft | 432 kts | 264° |
| 2026-05-05 18:57 | 52.21408 | 8.67260 | 23739 ft | 426 kts | 264° |
| 2026-05-05 18:57 | 52.21238 | 8.62452 | 23129 ft | 423 kts | 264° |
| 2026-05-05 18:57 | 52.21067 | 8.57696 | 22479 ft | 419 kts | 264° |
| 2026-05-05 18:58 | 52.20898 | 8.52978 | 21894 ft | 414 kts | 264° |
| 2026-05-05 18:58 | 52.20727 | 8.48319 | 21309 ft | 410 kts | 264° |
| 2026-05-05 18:58 | 52.20557 | 8.43706 | 20741 ft | 406 kts | 264° |
| 2026-05-05 18:58 | 52.20389 | 8.39127 | 20176 ft | 403 kts | 265° |
| 2026-05-05 18:59 | 52.20215 | 8.34591 | 19625 ft | 399 kts | 263° |
| 2026-05-05 18:59 | 52.19627 | 8.30216 | 19065 ft | 394 kts | 248° |
| 2026-05-05 18:59 | 52.18434 | 8.26239 | 18531 ft | 389 kts | 236° |
| 2026-05-05 18:59 | 52.16741 | 8.22841 | 18081 ft | 384 kts | 225° |
| 2026-05-05 19:00 | 52.14903 | 8.19790 | 17936 ft | 372 kts | 225° |
| 2026-05-05 19:00 | 52.13091 | 8.16791 | 17860 ft | 369 kts | 225° |
| 2026-05-05 19:00 | 52.11335 | 8.13862 | 17823 ft | 356 kts | 225° |
| 2026-05-05 19:00 | 52.09635 | 8.11006 | 17613 ft | 347 kts | 225° |
| 2026-05-05 19:01 | 52.08532 | 8.09145 | 17357 ft | 344 kts | 225° |
| 2026-05-05 19:01 | 52.06871 | 8.06338 | 16790 ft | 345 kts | 225° |
| 2026-05-05 19:01 | 52.05176 | 8.03476 | 15718 ft | 360 kts | 225° |
| 2026-05-05 19:01 | 52.03403 | 8.00487 | 14722 ft | 373 kts | 225° |
| 2026-05-05 19:02 | 52.01609 | 7.97465 | 14346 ft | 367 kts | 225° |
| 2026-05-05 19:02 | 51.99858 | 7.94517 | 14090 ft | 359 kts | 225° |
| 2026-05-05 19:02 | 51.98127 | 7.91607 | 13817 ft | 360 kts | 225° |
| 2026-05-05 19:02 | 51.96270 | 7.88908 | 13251 ft | 359 kts | 212° |
| 2026-05-05 19:03 | 51.94000 | 7.87305 | 12734 ft | 355 kts | 197° |
| 2026-05-05 19:03 | 51.91626 | 7.86276 | 12228 ft | 352 kts | 194° |
| 2026-05-05 19:03 | 51.89258 | 7.85358 | 11789 ft | 347 kts | 193° |
| 2026-05-05 19:03 | 51.86927 | 7.84477 | 11421 ft | 341 kts | 193° |
| 2026-05-05 19:04 | 51.84629 | 7.83620 | 11135 ft | 336 kts | 193° |
| 2026-05-05 19:04 | 51.82356 | 7.82779 | 10885 ft | 336 kts | 193° |
| 2026-05-05 19:04 | 51.80039 | 7.81923 | 10690 ft | 343 kts | 193° |
| 2026-05-05 19:04 | 51.77771 | 7.81086 | 10547 ft | 326 kts | 193° |
| 2026-05-05 19:05 | 51.75632 | 7.80251 | 10399 ft | 307 kts | 199° |
| 2026-05-05 19:05 | 51.73863 | 7.78567 | 10248 ft | 289 kts | 224° |
| 2026-05-05 19:05 | 51.72708 | 7.75997 | 9937 ft | 282 kts | 240° |
| 2026-05-05 19:05 | 51.71792 | 7.73173 | 9522 ft | 285 kts | 243° |
| 2026-05-05 19:06 | 51.70921 | 7.70369 | 9448 ft | 275 kts | 243° |
| 2026-05-05 19:06 | 51.70081 | 7.67639 | 9231 ft | 270 kts | 243° |
| 2026-05-05 19:06 | 51.69249 | 7.64922 | 8886 ft | 271 kts | 243° |
| 2026-05-05 19:06 | 51.68426 | 7.62233 | 8563 ft | 271 kts | 243° |
| 2026-05-05 19:07 | 51.67587 | 7.59487 | 8282 ft | 269 kts | 243° |
| 2026-05-05 19:07 | 51.66773 | 7.56821 | 7996 ft | 268 kts | 243° |
| 2026-05-05 19:07 | 51.65953 | 7.54130 | 7685 ft | 268 kts | 243° |
| 2026-05-05 19:07 | 51.65132 | 7.51436 | 7397 ft | 267 kts | 243° |
| 2026-05-05 19:08 | 51.64316 | 7.48756 | 7122 ft | 266 kts | 243° |
| 2026-05-05 19:08 | 51.63504 | 7.46087 | 6848 ft | 265 kts | 243° |
| 2026-05-05 19:08 | 51.62692 | 7.43419 | 6552 ft | 265 kts | 243° |
| 2026-05-05 19:08 | 51.61885 | 7.40763 | 6291 ft | 264 kts | 243° |
| 2026-05-05 19:09 | 51.61037 | 7.38150 | 5971 ft | 264 kts | 233° |
| 2026-05-05 19:09 | 51.59672 | 7.36286 | 5800 ft | 255 kts | 203° |
| 2026-05-05 19:09 | 51.57998 | 7.35649 | 5740 ft | 243 kts | 185° |
| 2026-05-05 19:09 | 51.56334 | 7.35403 | 5579 ft | 238 kts | 184° |
| 2026-05-05 19:10 | 51.54696 | 7.35194 | 5400 ft | 234 kts | 183° |
| 2026-05-05 19:10 | 51.53099 | 7.34993 | 5288 ft | 227 kts | 183° |
| 2026-05-05 19:10 | 51.51543 | 7.34796 | 5052 ft | 223 kts | 183° |
| 2026-05-05 19:10 | 51.49993 | 7.34595 | 4667 ft | 225 kts | 183° |
| 2026-05-05 19:11 | 51.48433 | 7.34381 | 4282 ft | 226 kts | 183° |
| 2026-05-05 19:11 | 51.46878 | 7.34154 | 4004 ft | 222 kts | 183° |
| 2026-05-05 19:11 | 51.45334 | 7.34012 | 3594 ft | 223 kts | 170° |
| 2026-05-05 19:11 | 51.44022 | 7.35069 | 3400 ft | 207 kts | 128° |
| 2026-05-05 19:12 | 51.43574 | 7.37113 | 3219 ft | 191 kts | 83° |
| 2026-05-05 19:12 | 51.44067 | 7.39021 | 2978 ft | 187 kts | 60° |
| 2026-05-05 19:12 | 51.44694 | 7.40835 | 2694 ft | 186 kts | 61° |
| 2026-05-05 19:12 | 51.45314 | 7.42647 | 2548 ft | 186 kts | 62° |
| 2026-05-05 19:13 | 51.45950 | 7.44476 | 2502 ft | 188 kts | 61° |
| 2026-05-05 19:13 | 51.46582 | 7.46280 | 2432 ft | 183 kts | 61° |
| 2026-05-05 19:13 | 51.47191 | 7.48019 | 2201 ft | 173 kts | 60° |
| 2026-05-05 19:13 | 51.47760 | 7.49641 | 1983 ft | 164 kts | 60° |
| 2026-05-05 19:14 | 51.48293 | 7.51163 | 1770 ft | 153 kts | 59° |
| 2026-05-05 19:14 | 51.48786 | 7.52568 | 1602 ft | 139 kts | 58° |
| 2026-05-05 19:14 | 51.49263 | 7.53922 | 1399 ft | 140 kts | 59° |
| 2026-05-05 19:14 | 51.49726 | 7.55264 | 1234 ft | 136 kts | 58° |
| 2026-05-05 19:15 | 51.50201 | 7.56600 | 1052 ft | 138 kts | 58° |
| 2026-05-05 19:15 | 51.50679 | 7.57962 | 871 ft | 142 kts | 58° |
| 2026-05-05 19:15 | 51.51162 | 7.59322 | 659 ft | 137 kts | 58° |
| 2026-05-05 19:15 | 51.51621 | 7.60622 | 447 ft | 129 kts | 58° |
| 2026-05-05 19:16 | 51.52002 | 7.61703 | 412 ft | 71 kts | 61° |
| 2026-05-05 19:16 | 51.52119 | 7.62035 | 411 ft | 23 kts | 60° |
| 2026-05-05 19:16 | 51.52188 | 7.62223 | 413 ft | 15 kts | 62° |
| 2026-05-05 19:16 | 51.52189 | 7.62297 | 413 ft | 2 kts | 109° |
| 2026-05-05 19:17 | 51.52176 | 7.62319 | 411 ft | 4 kts | 135° |
| 2026-05-05 19:17 | 51.52146 | 7.62346 | 412 ft | 6 kts | 174° |
| 2026-05-05 19:17 | 51.52110 | 7.62377 | 410 ft | 7 kts | 145° |
| 2026-05-05 19:17 | 51.52104 | 7.62384 | 412 ft | 0 kts | 145° |
| 2026-05-05 19:18 | 51.52103 | 7.62384 | 411 ft | 0 kts | 145° |
| 2026-05-05 19:18 | 51.52099 | 7.62389 | 411 ft | 2 kts | 144° |
| 2026-05-05 19:18 | 51.52072 | 7.62398 | 411 ft | 6 kts | 184° |
| 2026-05-05 19:18 | 51.52038 | 7.62349 | 410 ft | 8 kts | 240° |
| 2026-05-05 19:19 | 51.52012 | 7.62276 | 413 ft | 7 kts | 240° |
| 2026-05-05 19:19 | 51.51988 | 7.62206 | 411 ft | 7 kts | 240° |
| 2026-05-05 19:19 | 51.51961 | 7.62131 | 414 ft | 9 kts | 240° |
| 2026-05-05 19:19 | 51.51925 | 7.62032 | 416 ft | 12 kts | 242° |
| 2026-05-05 19:20 | 51.51878 | 7.61897 | 412 ft | 15 kts | 240° |
| 2026-05-05 19:20 | 51.51823 | 7.61741 | 415 ft | 18 kts | 241° |
| 2026-05-05 19:20 | 51.51763 | 7.61567 | 418 ft | 18 kts | 240° |
| 2026-05-05 19:20 | 51.51703 | 7.61399 | 422 ft | 17 kts | 240° |
| 2026-05-05 19:21 | 51.51644 | 7.61232 | 424 ft | 17 kts | 240° |
| 2026-05-05 19:21 | 51.51586 | 7.61074 | 427 ft | 11 kts | 227° |
| 2026-05-05 19:21 | 51.51543 | 7.61059 | 433 ft | 6 kts | 175° |
| 2026-05-05 19:21 | 51.51503 | 7.61040 | 430 ft | 6 kts | 216° |
| 2026-05-05 19:22 | 51.51460 | 7.61042 | 437 ft | 7 kts | 147° |
| 2026-05-05 19:22 | 51.51447 | 7.61058 | 433 ft | 0 kts | 142° |
| 2026-05-05 19:23 | 51.64533 | 7.49470 | 7194 ft | 266 kts | 243° |